createdAt,value
2023-01-29T00:01:20.296Z,84.78
2023-01-29T00:03:46.964Z,83.72
2023-01-29T00:06:13.705Z,83.41
2023-01-29T00:08:40.314Z,84.29
2023-01-29T00:11:08.287Z,84.50
2023-01-29T00:13:35.107Z,84.65
2023-01-29T00:16:01.901Z,83.92
2023-01-29T00:18:29.183Z,83.81
2023-01-29T00:20:55.917Z,84.41
2023-01-29T00:23:22.731Z,83.24
2023-01-29T00:25:49.351Z,82.44
2023-01-29T00:28:16.071Z,81.64
2023-01-29T00:30:42.786Z,82.67
2023-01-29T00:33:10.054Z,82.69
2023-01-29T00:35:39.032Z,81.46
2023-01-29T00:38:05.744Z,83.33
2023-01-29T00:40:52.365Z,82.64
2023-01-29T00:43:37.394Z,83.97
2023-01-29T00:46:06.520Z,84.53
2023-01-29T00:48:34.308Z,83.78
2023-01-29T00:51:01.756Z,85.08
2023-01-29T00:53:28.610Z,85.26
2023-01-29T00:55:55.368Z,84.28
2023-01-29T00:58:28.288Z,83.48
2023-01-29T01:00:56.019Z,82.81
2023-01-29T01:03:22.730Z,82.85
2023-01-29T01:05:49.535Z,83.13
2023-01-29T01:08:34.615Z,84.51
2023-01-29T01:11:02.693Z,84.24
2023-01-29T01:13:30.011Z,82.22
2023-01-29T01:15:56.759Z,83.30
2023-01-29T01:18:23.438Z,84.52
2023-01-29T01:20:52.841Z,84.21
2023-01-29T01:23:19.771Z,83.85
2023-01-29T01:25:46.693Z,85.42
2023-01-29T01:28:13.401Z,85.17
2023-01-29T01:30:40.084Z,85.06
2023-01-29T01:33:06.917Z,85.63
2023-01-29T01:35:33.662Z,86.80
2023-01-29T01:38:00.261Z,86.17
2023-01-29T01:40:26.983Z,85.82
2023-01-29T01:42:55.915Z,86.21
2023-01-29T01:45:29.629Z,85.89
2023-01-29T01:47:59.006Z,86.09
2023-01-29T01:50:35.997Z,87.60
2023-01-29T01:53:06.795Z,87.58
2023-01-29T01:55:34.310Z,86.12
2023-01-29T01:58:09.407Z,86.17
2023-01-29T02:00:36.239Z,87.51
2023-01-29T02:03:21.443Z,87.20
2023-01-29T02:06:06.541Z,88.23
2023-01-29T02:09:06.533Z,88.93
2023-01-29T02:11:33.316Z,88.30
2023-01-29T02:13:59.989Z,88.63
2023-01-29T02:16:26.725Z,89.58
2023-01-29T02:18:53.384Z,88.48
2023-01-29T02:21:56.885Z,88.43
2023-01-29T02:24:54.118Z,87.97
2023-01-29T02:27:32.887Z,88.00
2023-01-29T02:30:03.926Z,87.94
2023-01-29T02:32:54.474Z,88.63
2023-01-29T02:35:34.632Z,88.54
2023-01-29T02:38:09.763Z,88.54
2023-01-29T02:40:59.786Z,89.42
2023-01-29T02:44:23.266Z,88.60
2023-01-29T02:47:01.842Z,87.20
2023-01-29T02:49:49.874Z,87.68
2023-01-29T02:52:19.710Z,87.31
2023-01-29T02:54:56.951Z,86.45
2023-01-29T02:57:29.297Z,85.56
2023-01-29T02:59:57.206Z,85.61
2023-01-29T03:02:38.508Z,86.25
2023-01-29T03:05:08.754Z,86.09
2023-01-29T03:07:46.744Z,85.19
2023-01-29T03:10:26.871Z,84.89
2023-01-29T03:13:13.419Z,85.48
2023-01-29T03:15:46.930Z,87.83
2023-01-29T03:18:18.443Z,87.19
2023-01-29T03:20:48.327Z,87.30
2023-01-29T03:23:47.480Z,86.24
2023-01-29T03:26:34.055Z,85.22
2023-01-29T03:29:19.348Z,85.27
2023-01-29T03:32:05.688Z,85.36
2023-01-29T03:34:39.058Z,86.43
2023-01-29T03:37:25.383Z,85.34
2023-01-29T03:39:52.169Z,86.08
2023-01-29T03:42:30.111Z,86.08
2023-01-29T03:45:08.599Z,86.41
2023-01-29T03:47:35.392Z,86.44
2023-01-29T03:50:19.087Z,86.67
2023-01-29T03:52:48.691Z,88.11
2023-01-29T03:55:39.772Z,88.54
2023-01-29T03:58:21.618Z,88.60
2023-01-29T04:00:56.273Z,88.33
2023-01-29T04:03:28.888Z,87.74
2023-01-29T04:06:10.005Z,86.99
2023-01-29T04:09:16.324Z,88.00
2023-01-29T04:11:49.447Z,87.95
2023-01-29T04:14:16.025Z,86.84
2023-01-29T04:16:46.115Z,86.46
2023-01-29T04:19:12.822Z,85.35
2023-01-29T04:21:39.716Z,85.97
2023-01-29T04:24:07.043Z,86.74
2023-01-29T04:26:58.275Z,86.27
2023-01-29T04:29:33.808Z,86.35
2023-01-29T04:32:12.451Z,86.28
2023-01-29T04:35:01.629Z,86.74
2023-01-29T04:37:50.635Z,86.61
2023-01-29T04:40:27.071Z,87.99
2023-01-29T04:43:21.472Z,88.04
2023-01-29T04:45:54.166Z,87.29
2023-01-29T04:48:30.595Z,87.35
2023-01-29T04:51:13.225Z,86.59
2023-01-29T04:53:54.268Z,84.68
2023-01-29T04:56:29.552Z,85.95
2023-01-29T04:59:18.283Z,86.44
2023-01-29T05:01:44.911Z,84.98
2023-01-29T05:04:13.425Z,85.09
2023-01-29T05:06:40.051Z,84.56
2023-01-29T05:09:06.887Z,83.37
2023-01-29T05:11:33.491Z,83.83
2023-01-29T05:14:01.455Z,83.50
2023-01-29T05:16:29.262Z,84.37
2023-01-29T05:18:55.840Z,84.65
2023-01-29T05:21:23.389Z,84.25
2023-01-29T05:24:09.739Z,84.89
2023-01-29T05:26:54.887Z,85.05
2023-01-29T05:29:21.728Z,84.35
2023-01-29T05:31:48.470Z,83.72
2023-01-29T05:34:15.235Z,83.44
2023-01-29T05:36:41.830Z,81.77
2023-01-29T05:39:08.780Z,82.58
2023-01-29T05:41:35.447Z,81.62
2023-01-29T05:44:02.048Z,82.77
2023-01-29T05:46:28.788Z,83.03
2023-01-29T05:48:55.373Z,82.75
2023-01-29T05:51:22.071Z,82.83
2023-01-29T05:53:48.777Z,82.13
2023-01-29T05:56:15.454Z,82.74
2023-01-29T05:58:42.020Z,81.95
2023-01-29T06:01:16.802Z,82.23
2023-01-29T06:03:43.592Z,83.84
2023-01-29T06:06:10.399Z,83.24
2023-01-29T06:08:36.986Z,83.40
2023-01-29T06:11:04.712Z,82.27
2023-01-29T06:13:31.349Z,81.44
2023-01-29T06:15:57.986Z,82.13
2023-01-29T06:18:25.199Z,83.21
2023-01-29T06:20:51.778Z,81.98
2023-01-29T06:23:18.413Z,82.11
2023-01-29T06:25:46.271Z,82.69
2023-01-29T06:28:12.866Z,82.28
2023-01-29T06:30:39.527Z,82.78
2023-01-29T06:33:06.380Z,83.23
2023-01-29T06:35:32.981Z,84.50
2023-01-29T06:37:59.604Z,83.42
2023-01-29T06:40:26.326Z,82.88
2023-01-29T06:42:52.899Z,82.00
2023-01-29T06:45:19.636Z,82.88
2023-01-29T06:47:46.407Z,83.23
2023-01-29T06:50:13.086Z,83.06
2023-01-29T06:52:39.685Z,83.82
2023-01-29T06:55:06.671Z,83.57
2023-01-29T06:57:33.494Z,82.60
2023-01-29T07:00:00.145Z,83.91
2023-01-29T07:02:26.844Z,82.81
2023-01-29T07:04:53.697Z,81.47
2023-01-29T07:07:20.320Z,82.50
2023-01-29T07:09:46.989Z,83.46
2023-01-29T07:12:13.664Z,82.09
2023-01-29T07:14:40.276Z,81.81
2023-01-29T07:17:06.943Z,82.46
2023-01-29T07:19:33.611Z,82.69
2023-01-29T07:22:02.509Z,82.38
2023-01-29T07:24:29.544Z,82.36
2023-01-29T07:26:56.238Z,80.54
2023-01-29T07:29:23.024Z,80.33
2023-01-29T07:31:49.770Z,81.13
2023-01-29T07:34:16.511Z,81.93
2023-01-29T07:36:43.183Z,81.29
2023-01-29T07:39:10.328Z,80.90
2023-01-29T07:41:37.023Z,78.26
2023-01-29T07:44:03.824Z,77.21
2023-01-29T07:46:30.458Z,78.22
2023-01-29T07:48:58.420Z,77.99
2023-01-29T07:51:25.049Z,77.68
2023-01-29T07:53:51.751Z,78.52
2023-01-29T07:56:18.637Z,77.19
2023-01-29T07:58:45.295Z,75.32
2023-01-29T08:01:11.916Z,77.59
2023-01-29T08:03:38.849Z,75.21
2023-01-29T08:06:05.599Z,75.07
2023-01-29T08:08:32.288Z,75.33
2023-01-29T08:11:01.630Z,74.75
2023-01-29T08:13:28.301Z,74.95
2023-01-29T08:15:58.695Z,73.47
2023-01-29T08:18:25.386Z,74.56
2023-01-29T08:20:52.910Z,73.18
2023-01-29T08:23:19.626Z,72.67
2023-01-29T08:25:46.333Z,72.57
2023-01-29T08:28:13.071Z,72.60
2023-01-29T08:30:39.843Z,72.74
2023-01-29T08:33:06.858Z,72.31
2023-01-29T08:35:33.585Z,71.99
2023-01-29T08:38:01.545Z,70.95
2023-01-29T08:40:28.831Z,71.44
2023-01-29T08:43:03.038Z,69.69
2023-01-29T08:45:31.931Z,70.65
2023-01-29T08:47:58.652Z,72.49
2023-01-29T08:50:25.351Z,72.26
2023-01-29T08:52:52.039Z,73.28
2023-01-29T08:55:18.954Z,73.33
2023-01-29T08:57:45.959Z,71.27
2023-01-29T09:00:13.174Z,72.64
2023-01-29T09:02:39.876Z,71.18
2023-01-29T09:05:07.282Z,71.69
2023-01-29T09:07:33.959Z,70.65
2023-01-29T09:10:00.728Z,71.15
2023-01-29T09:12:27.377Z,70.22
2023-01-29T09:14:53.927Z,70.17
2023-01-29T09:17:20.659Z,71.69
2023-01-29T09:19:47.329Z,71.01
2023-01-29T09:22:14.119Z,70.65
2023-01-29T09:24:40.740Z,72.50
2023-01-29T09:27:07.483Z,73.12
2023-01-29T09:29:35.881Z,73.23
2023-01-29T09:32:04.255Z,71.64
2023-01-29T09:34:31.025Z,74.34
2023-01-29T09:36:57.649Z,74.55
2023-01-29T09:39:24.369Z,73.89
2023-01-29T09:42:13.789Z,74.09
2023-01-29T09:44:40.244Z,71.89
2023-01-29T09:47:07.715Z,72.14
2023-01-29T09:49:42.292Z,72.85
2023-01-29T09:52:14.812Z,72.38
2023-01-29T09:55:15.489Z,71.05
2023-01-29T09:57:59.378Z,69.20
2023-01-29T10:00:48.660Z,70.06
2023-01-29T10:03:21.215Z,70.63
2023-01-29T10:06:03.873Z,72.54
2023-01-29T10:09:18.178Z,71.14
2023-01-29T10:11:58.389Z,68.65
2023-01-29T10:15:06.281Z,71.26
2023-01-29T10:17:54.722Z,72.87
2023-01-29T10:20:43.409Z,73.53
2023-01-29T10:23:21.642Z,72.13
2023-01-29T10:25:48.480Z,72.48
2023-01-29T10:28:21.931Z,73.50
2023-01-29T10:30:50.212Z,72.18
2023-01-29T10:33:27.519Z,72.50
2023-01-29T10:35:57.183Z,71.36
2023-01-29T10:38:25.314Z,72.21
2023-01-29T10:41:09.987Z,73.14
2023-01-29T10:43:42.203Z,72.33
2023-01-29T10:46:32.006Z,72.56
2023-01-29T10:49:07.655Z,72.85
2023-01-29T10:51:55.250Z,72.80
2023-01-29T10:54:48.043Z,72.79
2023-01-29T10:57:20.128Z,73.72
2023-01-29T11:00:00.165Z,72.31
2023-01-29T11:02:26.867Z,72.57
2023-01-29T11:04:53.622Z,72.49
2023-01-29T11:07:20.352Z,72.79
2023-01-29T11:10:08.350Z,72.21
2023-01-29T11:12:36.641Z,73.05
2023-01-29T11:15:16.875Z,74.39
2023-01-29T11:18:04.382Z,73.08
2023-01-29T11:20:31.341Z,70.52
2023-01-29T11:22:58.183Z,71.49
2023-01-29T11:25:24.991Z,72.00
2023-01-29T11:28:01.888Z,70.93
2023-01-29T11:30:29.306Z,70.99
2023-01-29T11:33:01.050Z,71.24
2023-01-29T11:35:30.216Z,73.00
2023-01-29T11:38:19.380Z,72.53
2023-01-29T11:40:46.016Z,72.58
2023-01-29T11:43:18.412Z,73.38
2023-01-29T11:45:45.071Z,75.25
2023-01-29T11:48:22.423Z,76.20
2023-01-29T11:51:00.733Z,75.04
2023-01-29T11:53:38.959Z,74.78
2023-01-29T11:56:14.567Z,75.95
2023-01-29T11:58:41.288Z,74.83
2023-01-29T12:01:07.995Z,74.90
2023-01-29T12:03:35.776Z,75.52
2023-01-29T12:06:06.401Z,76.21
2023-01-29T12:08:38.355Z,74.48
2023-01-29T12:11:34.046Z,74.02
2023-01-29T12:14:05.429Z,74.75
2023-01-29T12:16:55.434Z,73.45
2023-01-29T12:19:29.870Z,74.00
2023-01-29T12:22:03.944Z,73.62
2023-01-29T12:24:38.303Z,73.46
2023-01-29T12:27:31.016Z,75.05
2023-01-29T12:30:20.451Z,74.66
2023-01-29T12:32:56.538Z,75.07
2023-01-29T12:35:32.184Z,74.85
2023-01-29T12:38:02.804Z,74.38
2023-01-29T12:40:37.901Z,75.58
2023-01-29T12:43:07.383Z,75.74
2023-01-29T12:45:34.072Z,74.92
2023-01-29T12:48:12.257Z,75.17
2023-01-29T12:50:38.838Z,72.87
2023-01-29T12:53:27.410Z,74.04
2023-01-29T12:55:57.818Z,71.99
2023-01-29T12:58:36.761Z,72.00
2023-01-29T13:01:08.416Z,72.82
2023-01-29T13:03:45.582Z,71.00
2023-01-29T13:06:14.839Z,71.90
2023-01-29T13:08:56.408Z,72.94
2023-01-29T13:11:25.916Z,71.36
2023-01-29T13:14:01.468Z,71.41
2023-01-29T13:16:30.672Z,72.35
2023-01-29T13:18:59.195Z,73.93
2023-01-29T13:21:27.669Z,74.83
2023-01-29T13:23:56.966Z,75.38
2023-01-29T13:26:23.944Z,74.42
2023-01-29T13:28:51.509Z,75.91
2023-01-29T13:31:28.501Z,74.84
2023-01-29T13:34:13.991Z,75.83
2023-01-29T13:36:52.094Z,75.93
2023-01-29T13:39:37.617Z,76.30
2023-01-29T13:42:21.793Z,76.29
2023-01-29T13:44:51.755Z,75.58
2023-01-29T13:47:26.723Z,76.35
2023-01-29T13:50:07.624Z,76.12
2023-01-29T13:52:36.056Z,76.02
2023-01-29T13:55:04.786Z,75.37
2023-01-29T13:57:43.523Z,76.31
2023-01-29T14:00:21.861Z,75.97
2023-01-29T14:02:54.819Z,76.26
2023-01-29T14:05:30.718Z,76.85
2023-01-29T14:07:59.330Z,75.34
2023-01-29T14:10:27.444Z,75.34
2023-01-29T14:13:12.750Z,73.09
2023-01-29T14:15:40.151Z,71.86
2023-01-29T14:18:16.674Z,72.84
2023-01-29T14:20:58.535Z,72.43
2023-01-29T14:23:35.704Z,72.50
2023-01-29T14:26:04.999Z,71.84
2023-01-29T14:28:32.540Z,73.00
2023-01-29T14:30:59.294Z,73.60
2023-01-29T14:33:34.123Z,73.81
2023-01-29T14:36:04.480Z,74.10
2023-01-29T14:38:31.127Z,74.87
2023-01-29T14:41:22.056Z,76.72
2023-01-29T14:43:49.006Z,77.56
2023-01-29T14:46:33.934Z,78.12
2023-01-29T14:49:00.532Z,79.13
2023-01-29T14:51:27.342Z,78.00
2023-01-29T14:54:04.164Z,77.33
2023-01-29T14:56:40.664Z,78.22
2023-01-29T14:59:15.566Z,77.99
2023-01-29T15:01:47.176Z,77.34
2023-01-29T15:04:20.914Z,79.69
2023-01-29T15:06:50.563Z,81.05
2023-01-29T15:09:49.776Z,81.44
2023-01-29T15:12:26.802Z,80.19
2023-01-29T15:15:24.292Z,79.59
2023-01-29T15:18:09.424Z,80.21
2023-01-29T15:20:37.471Z,79.94
2023-01-29T15:23:04.914Z,80.13
2023-01-29T15:25:36.074Z,80.17
2023-01-29T15:28:07.095Z,79.59
2023-01-29T15:30:34.067Z,80.02
2023-01-29T15:33:02.130Z,79.71
2023-01-29T15:35:35.649Z,80.55
2023-01-29T15:38:21.621Z,80.23
2023-01-29T15:40:58.052Z,79.06
2023-01-29T15:43:32.323Z,78.19
2023-01-29T15:46:01.134Z,78.45
2023-01-29T15:48:33.095Z,77.72
2023-01-29T15:50:59.744Z,77.12
2023-01-29T15:53:30.359Z,78.41
2023-01-29T15:55:59.942Z,77.98
2023-01-29T15:58:31.626Z,77.67
2023-01-29T16:00:58.849Z,78.42
2023-01-29T16:03:28.090Z,78.54
2023-01-29T16:05:55.036Z,78.46
2023-01-29T16:08:22.157Z,78.14
2023-01-29T16:10:51.796Z,77.36
2023-01-29T16:13:23.960Z,77.18
2023-01-29T16:16:08.511Z,77.81
2023-01-29T16:18:41.019Z,77.49
2023-01-29T16:21:18.206Z,76.92
2023-01-29T16:23:48.658Z,77.94
2023-01-29T16:26:17.890Z,78.28
2023-01-29T16:28:44.785Z,78.67
2023-01-29T16:31:12.009Z,76.86
2023-01-29T16:33:40.244Z,78.14
2023-01-29T16:36:20.602Z,77.21
2023-01-29T16:38:54.103Z,77.22
2023-01-29T16:41:26.855Z,76.75
2023-01-29T16:43:54.745Z,77.36
2023-01-29T16:46:30.952Z,78.10
2023-01-29T16:48:57.614Z,76.66
2023-01-29T16:51:31.625Z,76.20
2023-01-29T16:54:19.081Z,77.74
2023-01-29T16:56:46.264Z,76.09
2023-01-29T16:59:18.821Z,77.35
2023-01-29T17:01:45.437Z,76.03
2023-01-29T17:04:14.520Z,77.62
2023-01-29T17:06:42.767Z,77.76
2023-01-29T17:09:19.395Z,77.03
2023-01-29T17:11:46.108Z,76.07
2023-01-29T17:14:12.693Z,76.03
2023-01-29T17:17:15.268Z,77.69
2023-01-29T17:19:41.909Z,76.86
2023-01-29T17:22:14.741Z,76.67
2023-01-29T17:24:42.126Z,75.71
2023-01-29T17:27:21.673Z,75.76
2023-01-29T17:29:48.488Z,76.02
2023-01-29T17:32:17.595Z,78.05
2023-01-29T17:34:44.436Z,77.89
2023-01-29T17:37:13.743Z,77.59
2023-01-29T17:39:40.444Z,77.66
2023-01-29T17:42:10.842Z,78.37
2023-01-29T17:44:37.456Z,79.47
2023-01-29T17:47:05.488Z,78.98
2023-01-29T17:49:35.894Z,77.95
2023-01-29T17:52:02.717Z,78.33
2023-01-29T17:54:29.338Z,78.22
2023-01-29T17:56:56.463Z,78.69
2023-01-29T17:59:25.211Z,79.30
2023-01-29T18:01:52.222Z,78.57
2023-01-29T18:04:19.101Z,78.09
2023-01-29T18:06:48.042Z,76.62
2023-01-29T18:09:15.452Z,76.45
2023-01-29T18:11:42.672Z,77.47
2023-01-29T18:14:14.507Z,77.81
2023-01-29T18:16:42.161Z,77.28
2023-01-29T18:19:14.197Z,77.69
2023-01-29T18:21:40.956Z,78.59
2023-01-29T18:24:08.281Z,77.95
2023-01-29T18:26:36.106Z,78.60
2023-01-29T18:29:03.550Z,77.65
2023-01-29T18:31:30.358Z,78.58
2023-01-29T18:33:57.297Z,77.45
2023-01-29T18:36:23.920Z,78.70
2023-01-29T18:38:50.520Z,77.84
2023-01-29T18:41:17.408Z,77.58
2023-01-29T18:43:44.314Z,78.66
2023-01-29T18:46:11.154Z,78.61
2023-01-29T18:48:37.909Z,80.43
2023-01-29T18:51:04.858Z,80.11
2023-01-29T18:53:33.474Z,79.93
2023-01-29T18:56:04.134Z,79.10
2023-01-29T18:58:36.673Z,80.73
2023-01-29T19:01:09.542Z,78.96
2023-01-29T19:03:36.558Z,79.44
2023-01-29T19:06:04.160Z,78.15
2023-01-29T19:08:30.878Z,79.17
2023-01-29T19:10:57.990Z,78.60
2023-01-29T19:13:26.418Z,79.09
2023-01-29T19:15:53.118Z,78.23
2023-01-29T19:18:20.539Z,78.69
2023-01-29T19:20:47.150Z,78.62
2023-01-29T19:23:13.871Z,77.40
2023-01-29T19:25:40.517Z,76.64
2023-01-29T19:28:07.405Z,76.48
2023-01-29T19:30:34.039Z,76.30
2023-01-29T19:33:00.923Z,77.90
2023-01-29T19:35:27.672Z,76.55
2023-01-29T19:37:54.669Z,76.14
2023-01-29T19:40:21.690Z,78.99
2023-01-29T19:42:48.390Z,79.09
2023-01-29T19:45:15.487Z,79.66
2023-01-29T19:47:43.232Z,80.58
2023-01-29T19:50:10.549Z,79.18
2023-01-29T19:52:52.540Z,78.96
2023-01-29T19:55:20.839Z,79.91
2023-01-29T19:57:47.698Z,79.33
2023-01-29T20:00:17.431Z,79.92
2023-01-29T20:02:44.158Z,78.65
2023-01-29T20:05:12.744Z,78.83
2023-01-29T20:07:40.123Z,79.90
2023-01-29T20:10:08.982Z,79.33
2023-01-29T20:12:35.791Z,78.83
2023-01-29T20:15:02.484Z,79.13
2023-01-29T20:17:29.151Z,79.37
2023-01-29T20:19:55.917Z,79.40
2023-01-29T20:22:22.827Z,80.66
2023-01-29T20:24:49.504Z,78.60
2023-01-29T20:27:16.194Z,78.95
2023-01-29T20:29:45.274Z,77.97
2023-01-29T20:32:12.919Z,79.00
2023-01-29T20:34:39.763Z,79.36
2023-01-29T20:37:06.707Z,78.76
2023-01-29T20:39:33.375Z,80.11
2023-01-29T20:42:00.109Z,82.00
2023-01-29T20:44:26.814Z,80.87
2023-01-29T20:46:53.504Z,79.55
2023-01-29T20:49:21.113Z,80.30
2023-01-29T20:51:47.803Z,79.76
2023-01-29T20:54:14.855Z,79.31
2023-01-29T20:56:45.223Z,79.23
2023-01-29T20:59:14.483Z,79.62
2023-01-29T21:01:41.939Z,80.46
2023-01-29T21:04:08.673Z,79.98
2023-01-29T21:06:35.260Z,80.61
2023-01-29T21:09:01.893Z,80.16
2023-01-29T21:11:28.705Z,79.48
2023-01-29T21:13:57.836Z,78.58
2023-01-29T21:16:26.349Z,78.99
2023-01-29T21:18:57.134Z,78.99
2023-01-29T21:21:24.115Z,80.63
2023-01-29T21:23:50.803Z,79.25
2023-01-29T21:26:18.866Z,80.23
2023-01-29T21:28:46.132Z,79.56
2023-01-29T21:31:14.502Z,80.50
2023-01-29T21:33:41.187Z,79.29
2023-01-29T21:36:08.539Z,79.57
2023-01-29T21:38:35.167Z,79.55
2023-01-29T21:41:02.699Z,80.39
2023-01-29T21:43:29.360Z,80.97
2023-01-29T21:46:00.438Z,81.23
2023-01-29T21:48:27.358Z,82.15
2023-01-29T21:50:54.215Z,82.98
2023-01-29T21:53:20.886Z,83.60
2023-01-29T21:55:47.638Z,83.49
2023-01-29T21:58:14.732Z,83.94
2023-01-29T22:00:41.520Z,83.66
2023-01-29T22:03:08.249Z,82.66
2023-01-29T22:05:35.072Z,82.76
2023-01-29T22:08:02.483Z,82.01
2023-01-29T22:10:30.580Z,81.61
2023-01-29T22:12:57.862Z,81.75
2023-01-29T22:15:24.594Z,81.04
2023-01-29T22:17:51.327Z,81.29
2023-01-29T22:20:18.993Z,80.33
2023-01-29T22:22:45.822Z,80.21
2023-01-29T22:25:12.695Z,80.32
2023-01-29T22:27:39.446Z,80.77
2023-01-29T22:30:06.760Z,82.33
2023-01-29T22:32:33.422Z,80.87
2023-01-29T22:35:00.166Z,80.04
2023-01-29T22:37:26.855Z,79.94
2023-01-29T22:39:53.519Z,80.22
2023-01-29T22:42:20.884Z,81.02
2023-01-29T22:44:48.299Z,80.41
2023-01-29T22:47:15.172Z,82.23
2023-01-29T22:49:41.955Z,81.89
2023-01-29T22:52:11.470Z,81.03
2023-01-29T22:54:39.117Z,80.63
2023-01-29T22:57:06.102Z,80.98
2023-01-29T22:59:33.142Z,82.66
2023-01-29T23:02:00.013Z,81.11
2023-01-29T23:04:26.837Z,81.31
2023-01-29T23:06:53.438Z,81.56
2023-01-29T23:09:20.155Z,81.71
2023-01-29T23:11:46.844Z,82.70
2023-01-29T23:14:13.505Z,81.48
2023-01-29T23:16:40.156Z,81.99
2023-01-29T23:19:06.848Z,83.80
2023-01-29T23:21:33.549Z,83.82
2023-01-29T23:24:01.160Z,83.88
2023-01-29T23:26:47.064Z,83.70
2023-01-29T23:29:13.797Z,83.37
2023-01-29T23:31:40.491Z,82.90
2023-01-29T23:34:07.139Z,83.00
2023-01-29T23:36:33.781Z,82.05
2023-01-29T23:39:00.498Z,82.95
2023-01-29T23:41:27.161Z,83.46
2023-01-29T23:43:53.816Z,83.19
2023-01-29T23:46:20.618Z,81.71
2023-01-29T23:48:47.361Z,82.52
2023-01-29T23:51:14.104Z,83.22
2023-01-29T23:53:41.002Z,82.07
2023-01-29T23:56:07.971Z,80.79
2023-01-29T23:58:34.621Z,79.75
